Overview Statistics Trail Chart Weather Telemetry Raw packets
 

This is the latest recevied weather packets stored in our database for station/object 4S6DRJ-13. If no packets are shown the sender has not sent any weather packets the latest 10 day(s).

<< 72 73 74 75 76 77 78 >>
Time Temp. Humidity Pressure Rain* Wind** Luminosity Snow
1788343848 28.33° C 81% 1007.6 hPa 0 mm 1.79 m/s, 247° 336 W/m² -
1788343787 28.33° C 81% 1007.7 hPa 0 mm 0.45 m/s, 219° 313 W/m² -
1788343726 28.33° C 82% 1007.7 hPa 0 mm 1.79 m/s, 287° 289 W/m² -
1788343666 28.33° C 82% 1007.6 hPa 0 mm 1.34 m/s, 323° 273 W/m² -
1788343604 28.33° C 82% 1007.7 hPa 0 mm 1.34 m/s, 291° 259 W/m² -
1788343543 28.33° C 82% 1007.7 hPa 0 mm 0.45 m/s, 253° 244 W/m² -
1788343482 28.33° C 81% 1007.8 hPa 0 mm 1.79 m/s, 252° 226 W/m² -
1788343421 28.33° C 81% 1007.7 hPa 0 mm 0.45 m/s, 65° 207 W/m² -
1788343360 28.33° C 81% 1007.6 hPa 0 mm 1.79 m/s, 186° 189 W/m² -
1788343299 28.33° C 81% 1007.7 hPa 0 mm 0.89 m/s, 233° 177 W/m² -
1788343238 28.33° C 81% 1007.6 hPa 0 mm 1.79 m/s, 111° 161 W/m² -
1788343177 28.33° C 80% 1007.8 hPa 0 mm 0.89 m/s, 196° 149 W/m² -
1788343116 28.33° C 80% 1007.8 hPa 0 mm 2.24 m/s, 237° 142 W/m² -
1788343065 28.33° C 79% 1007.9 hPa 0 mm 1.79 m/s, 298° 141 W/m² -
1788342994 28.89° C 79% 1007.9 hPa 0 mm 2.68 m/s, 243° 143 W/m² -
1788342933 28.89° C 79% 1007.7 hPa 0 mm 2.24 m/s, 237° 150 W/m² -
1788342872 28.89° C 78% 1007.8 hPa 0 mm 1.34 m/s, 171° 165 W/m² -
1788342811 28.89° C 77% 1007.9 hPa 0 mm 2.24 m/s, 313° 179 W/m² -
1788342750 29.44° C 77% 1007.8 hPa 0 mm 1.79 m/s, 239° 183 W/m² -
1788342689 29.44° C 76% 1007.9 hPa 0 mm 2.68 m/s, 358° 175 W/m² -
1788342629 29.44° C 75% 1007.8 hPa 0 mm 1.79 m/s, 257° 157 W/m² -
1788342567 30° C 75% 1007.7 hPa 0 mm 2.24 m/s, 235° 124 W/m² -
1788342506 30.56° C 73% 1007.9 hPa 0 mm 3.13 m/s, 352° 86 W/m² -
1788342445 30.56° C 73% 1007.6 hPa 0 mm 4.02 m/s, 233° 70 W/m² -
1788342384 30.56° C 72% 1008 hPa 0 mm 2.68 m/s, 351° 96 W/m² -

* Rain latest hour (hover to see other rain measurements)
** Current wind speed in m/s (hover to see current wind gust speed)